Elisabeth — LHEA — position and weather

sailwx.info

Track history (hours):
 
Tides and Currents Weather Stations Pressure Air Temp Water Temp Dewpoint Dewpoint Depression Visibility Wind Speed Wind Dir Waves Ship Positions

Elisabeth

Last reported at 2016-Sep-21 19:33 UTC. Time now 2016-Oct-01 20:40 UTC.
Position N 59°37' E 005°15'.
Warning: this ship's position is 10 days out of date.

Length 61 m; draft 7 m.

Type: Fishing. MMSI: 259166000.

Date/timePositionNaut miles runAvg speedWind from/ knotsBaromVisibWave heightAir tempDewpointWater temp
2016-Sep-21 19:33N 59°37' E 005°15'  
2016-Sep-18 02:33N 59°36' E 005°14'0 0.0
2016-Sep-18 01:32N 59°36' E 005°14'0 0.0
2016-Sep-18 00:32N 59°36' E 005°14'0 0.0
2016-Sep-17 22:32N 59°36' E 005°14'0 0.0
2016-Sep-17 21:31N 59°36' E 005°14'0 0.0
2016-Sep-17 20:32N 59°36' E 005°14'0 0.0
2016-Sep-17 19:14N 59°36' E 005°14'0 0.0
2016-Sep-17 13:33N 59°36' E 005°14'0 0.0
2016-Sep-17 12:32N 59°36' E 005°14'0 0.0
2016-Sep-17 10:32N 59°36' E 005°14'1 1.0
2016-Sep-17 09:33N 59°37' E 005°15'2 1.9
2016-Sep-17 08:31N 59°39' E 005°15'0 0.1
2016-Sep-17 07:33N 59°39' E 005°15'3 1.3
2016-Sep-17 05:32N 59°36' E 005°14'0 0.0
2016-Sep-17 04:31N 59°36' E 005°14'0 0.0
2016-Sep-17 00:33N 59°36' E 005°14'51 7.3
2016-Sep-16 17:33N 58°46' E 005°25'2613.0
2016-Sep-16 15:33N 58°25' E 005°53'4 1.2
2016-Sep-16 12:33N 58°27' E 005°59'0 0.0
2016-Sep-16 09:33N 58°27' E 005°59'0 0.0
2016-Sep-16 07:33N 58°27' E 005°59'8 1.9
2016-Sep-16 03:33N 58°28' E 005°45'1414.0
2016-Sep-16 02:33N 58°38' E 005°28'2814.0
2016-Sep-16 00:33N 59°04' E 005°07'  
2016-Sep-13 09:33N 59°46' E 005°21'10 4.9
2016-Sep-13 07:32N 59°36' E 005°14'0 0.0
2016-Sep-13 06:33N 59°36' E 005°14'0 0.0
2016-Sep-13 04:33N 59°36' E 005°14'0 0.0
2016-Sep-13 02:33N 59°36' E 005°14'0 0.0
2016-Sep-12 23:32N 59°36' E 005°14'0 0.0
2016-Sep-12 21:33N 59°36' E 005°14'0 0.0
2016-Sep-12 19:32N 59°36' E 005°14'0 0.0
2016-Sep-12 17:34N 59°36' E 005°14'0 0.0
2016-Sep-12 14:31N 59°36' E 005°14'0 0.0
2016-Sep-12 13:33N 59°36' E 005°14'0 0.0
2016-Sep-12 12:23N 59°36' E 005°14'0 0.0
2016-Sep-12 11:32N 59°36' E 005°14'0 0.0
2016-Sep-12 10:32N 59°36' E 005°14'0 0.0
2016-Sep-12 07:33N 59°36' E 005°14'0 0.0
2016-Sep-12 06:32N 59°36' E 005°14'0 0.0
2016-Sep-12 03:32N 59°36' E 005°14'0 0.0
2016-Sep-12 01:31N 59°36' E 005°14'0 0.0
2016-Sep-11 23:32N 59°36' E 005°14'0 0.0
2016-Sep-11 22:33N 59°36' E 005°14'0 0.0
2016-Sep-11 21:32N 59°36' E 005°14'0 0.0
2016-Sep-11 20:34N 59°36' E 005°14'  
Track history (hours):
 
Tides and Currents Weather Stations Pressure Air Temp Water Temp Dewpoint Dewpoint Depression Visibility Wind Speed Wind Dir Waves Ship Positions

Elisabeth

Last reported at 2016-Sep-21 19:33 UTC. Time now 2016-Oct-01 20:40 UTC.
Position N 59°37' E 005°15'.
Warning: this ship's position is 10 days out of date.

Length 61 m; draft 7 m.

Type: Fishing. MMSI: 259166000.

Date/timePositionNaut miles runAvg speedWind from/ knotsBaromVisibWave heightAir tempDewpointWater temp
2016-Sep-21 19:33N 59°37' E 005°15'  
2016-Sep-18 02:33N 59°36' E 005°14'0 0.0
2016-Sep-18 01:32N 59°36' E 005°14'0 0.0
2016-Sep-18 00:32N 59°36' E 005°14'0 0.0
2016-Sep-17 22:32N 59°36' E 005°14'0 0.0
2016-Sep-17 21:31N 59°36' E 005°14'0 0.0
2016-Sep-17 20:32N 59°36' E 005°14'0 0.0
2016-Sep-17 19:14N 59°36' E 005°14'0 0.0
2016-Sep-17 13:33N 59°36' E 005°14'0 0.0
2016-Sep-17 12:32N 59°36' E 005°14'0 0.0
2016-Sep-17 10:32N 59°36' E 005°14'1 1.0
2016-Sep-17 09:33N 59°37' E 005°15'2 1.9
2016-Sep-17 08:31N 59°39' E 005°15'0 0.1
2016-Sep-17 07:33N 59°39' E 005°15'3 1.3
2016-Sep-17 05:32N 59°36' E 005°14'0 0.0
2016-Sep-17 04:31N 59°36' E 005°14'0 0.0
2016-Sep-17 00:33N 59°36' E 005°14'51 7.3
2016-Sep-16 17:33N 58°46' E 005°25'2613.0
2016-Sep-16 15:33N 58°25' E 005°53'4 1.2
2016-Sep-16 12:33N 58°27' E 005°59'0 0.0
2016-Sep-16 09:33N 58°27' E 005°59'0 0.0
2016-Sep-16 07:33N 58°27' E 005°59'8 1.9
2016-Sep-16 03:33N 58°28' E 005°45'1414.0
2016-Sep-16 02:33N 58°38' E 005°28'2814.0
2016-Sep-16 00:33N 59°04' E 005°07'  
2016-Sep-13 09:33N 59°46' E 005°21'10 4.9
2016-Sep-13 07:32N 59°36' E 005°14'0 0.0
2016-Sep-13 06:33N 59°36' E 005°14'0 0.0
2016-Sep-13 04:33N 59°36' E 005°14'0 0.0
2016-Sep-13 02:33N 59°36' E 005°14'0 0.0
2016-Sep-12 23:32N 59°36' E 005°14'0 0.0
2016-Sep-12 21:33N 59°36' E 005°14'0 0.0
2016-Sep-12 19:32N 59°36' E 005°14'0 0.0
2016-Sep-12 17:34N 59°36' E 005°14'0 0.0
2016-Sep-12 14:31N 59°36' E 005°14'0 0.0
2016-Sep-12 13:33N 59°36' E 005°14'0 0.0
2016-Sep-12 12:23N 59°36' E 005°14'0 0.0
2016-Sep-12 11:32N 59°36' E 005°14'0 0.0
2016-Sep-12 10:32N 59°36' E 005°14'0 0.0
2016-Sep-12 07:33N 59°36' E 005°14'0 0.0
2016-Sep-12 06:32N 59°36' E 005°14'0 0.0
2016-Sep-12 03:32N 59°36' E 005°14'0 0.0
2016-Sep-12 01:31N 59°36' E 005°14'0 0.0
2016-Sep-11 23:32N 59°36' E 005°14'0 0.0
2016-Sep-11 22:33N 59°36' E 005°14'0 0.0
2016-Sep-11 21:32N 59°36' E 005°14'0 0.0
2016-Sep-11 20:34N 59°36' E 005°14'  

Dump ship's entire track history